Terminal Aerodrome Forecast
Issued by NWS

Home | Current Version | Previous Version | Text Only | Print | Product List | Glossary On
Versions: 1 2 3 4 5 6 7 8 9 10 11 12 13 14 15 16
000
FTUS46 KSEW 250527
TAFOLM
TAF
KOLM 250527Z 2506/2606 00000KT P6SM SCT045
      TEMPO 2506/2508 BKN045
     FM250900 00000KT P6SM FEW022
     FM251200 00000KT P6SM BKN018
     FM251800 VRB03KT P6SM SKC
     FM252000 01005KT P6SM SKC=

USA.gov is the U.S. government's official web portal to all federal, state and local government web resources and services.